Time;durP1;ratioP1;P1;durP2;ratioP2;P2;SDS_P1;SDS_P2;PMS_P1;PMS_P2;Temp;Humidity;BMP_temperature;BMP_pressure;BME280_temperature;BME280_humidity;BME280_pressure;Samples;Min_cycle;Max_cycle;Signal;HPM_P1;HPM_P2
2023/07/06 00:02:09;;;;;;;4.20;3.50;;;25.30;58.80;;;;;;222217;1247;24381;-56
2023/07/06 00:07:20;;;;;;;5.10;3.70;;;25.20;58.70;;;;;;222364;1264;25309;-56
2023/07/06 00:12:24;;;;;;;4.30;3.90;;;25.20;58.60;;;;;;222397;1263;22520;-56
2023/07/06 00:17:28;;;;;;;5.90;4.10;;;25.20;58.90;;;;;;222288;1263;24364;-55
2023/07/06 00:22:36;;;;;;;5.20;3.10;;;25.20;58.40;;;;;;222318;1261;25368;-55
2023/07/06 00:27:40;;;;;;;5.90;3.50;;;25.20;58.20;;;;;;228255;1266;22575;-53
2023/07/06 00:32:47;;;;;;;5.70;3.70;;;25.30;58.00;;;;;;224614;1269;25520;-54
2023/07/06 00:37:54;;;;;;;4.20;3.60;;;25.30;57.60;;;;;;225711;1267;22761;-57
2023/07/06 00:43:02;;;;;;;5.90;3.60;;;25.30;57.80;;;;;;222344;1263;24372;-55
2023/07/06 00:48:20;;;;;;;4.50;3.40;;;25.20;57.60;;;;;;222318;1269;22518;-54
2023/07/06 00:53:29;;;;;;;4.50;3.80;;;25.10;57.50;;;;;;222715;1265;22603;-59
2023/07/06 00:58:37;;;;;;;9.50;3.70;;;25.10;57.80;;;;;;222263;1267;22620;-59
2023/07/06 01:03:48;;;;;;;6.40;3.80;;;25.10;57.30;;;;;;222285;1260;22630;-56
2023/07/06 01:08:54;;;;;;;3.60;3.30;;;25.10;57.50;;;;;;222566;1262;22521;-55
2023/07/06 01:14:00;;;;;;;3.90;3.10;;;25.10;57.00;;;;;;222410;1263;22630;-56
2023/07/06 01:19:23;;;;;;;4.50;3.30;;;25.00;56.90;;;;;;222568;1264;22518;-59
2023/07/06 01:24:43;;;;;;;4.30;3.80;;;25.10;56.80;;;;;;222366;1268;24230;-54
2023/07/06 01:30:12;;;;;;;4.70;3.20;;;25.10;56.90;;;;;;222412;1258;22518;-55
2023/07/06 01:36:01;;;;;;;7.70;3.70;;;25.00;56.40;;;;;;222477;1260;23936;-56
2023/07/06 01:41:06;;;;;;;7.10;3.30;;;25.00;56.20;;;;;;222341;1266;22668;-57
2023/07/06 01:46:10;;;;;;;5.30;3.20;;;25.00;56.50;;;;;;222310;1264;23945;-55
2023/07/06 01:51:32;;;;;;;4.10;3.70;;;24.90;56.00;;;;;;222384;1260;22505;-58
2023/07/06 01:56:44;;;;;;;3.30;3.10;;;24.90;55.90;;;;;;222802;1263;23489;-56
2023/07/06 02:01:59;;;;;;;3.70;2.90;;;24.90;55.80;;;;;;222268;1261;24211;-56
2023/07/06 02:07:06;;;;;;;5.00;2.90;;;24.90;55.50;;;;;;222495;1267;24241;-55
2023/07/06 02:12:14;;;;;;;3.90;3.40;;;24.90;55.30;;;;;;222398;1264;22531;-56
2023/07/06 02:17:21;;;;;;;3.70;3.40;;;24.90;55.20;;;;;;222545;1256;232226;-56
2023/07/06 02:22:27;;;;;;;3.50;2.50;;;24.90;54.90;;;;;;226877;1264;22498;-54
2023/07/06 02:27:32;;;;;;;4.10;3.40;;;24.90;54.60;;;;;;225813;1267;24243;-54
2023/07/06 02:32:36;;;;;;;3.60;3.20;;;25.00;54.00;;;;;;226037;1260;25600;-56
2023/07/06 02:37:40;;;;;;;5.80;2.90;;;25.00;53.80;;;;;;222017;1263;23079;-55
2023/07/06 02:42:44;;;;;;;6.50;3.50;;;24.90;54.00;;;;;;222465;1254;22530;-55
2023/07/06 02:47:48;;;;;;;3.20;2.80;;;24.80;54.10;;;;;;222263;1260;22515;-55
2023/07/06 02:52:53;;;;;;;4.00;2.50;;;24.80;54.30;;;;;;222522;1262;23890;-56
2023/07/06 02:57:58;;;;;;;3.20;3.00;;;24.70;54.40;;;;;;222378;1253;23941;-54
2023/07/06 03:03:03;;;;;;;4.90;3.00;;;24.70;54.70;;;;;;222256;1267;22697;-54
2023/07/06 03:08:07;;;;;;;3.50;3.20;;;24.70;54.70;;;;;;222251;1261;22919;-54
2023/07/06 03:13:13;;;;;;;3.20;3.00;;;24.70;54.10;;;;;;222184;1264;22519;-54
2023/07/06 03:18:18;;;;;;;3.40;3.10;;;24.70;54.40;;;;;;222392;1267;25306;-56
2023/07/06 03:23:23;;;;;;;3.10;2.80;;;24.70;54.40;;;;;;222342;1261;24179;-55
2023/07/06 03:28:28;;;;;;;3.50;3.00;;;24.70;54.50;;;;;;222438;1268;23699;-55
2023/07/06 03:33:33;;;;;;;4.90;2.90;;;24.60;54.50;;;;;;222317;1246;24435;-55
2023/07/06 03:38:37;;;;;;;4.00;2.60;;;24.60;54.60;;;;;;222305;1261;22527;-55
2023/07/06 03:43:41;;;;;;;3.40;2.80;;;24.60;55.40;;;;;;223218;1264;25376;-55
2023/07/06 03:48:47;;;;;;;4.90;2.70;;;24.60;54.80;;;;;;230188;1268;22153;-56
2023/07/06 03:53:51;;;;;;;4.10;2.80;;;24.70;54.50;;;;;;223886;1267;22522;-56
2023/07/06 03:58:56;;;;;;;3.10;2.90;;;24.80;54.70;;;;;;222363;1261;24095;-56
2023/07/06 04:04:02;;;;;;;3.30;3.10;;;24.70;54.70;;;;;;222427;1262;25476;-57
2023/07/06 04:09:11;;;;;;;2.90;2.70;;;24.60;55.00;;;;;;222654;1261;22527;-56
2023/07/06 04:14:15;;;;;;;5.30;2.90;;;24.60;55.50;;;;;;222273;1267;22532;-55
2023/07/06 04:19:19;;;;;;;5.70;2.90;;;24.50;55.30;;;;;;222511;1260;22520;-53
2023/07/06 04:24:25;;;;;;;4.50;2.90;;;24.60;55.80;;;;;;222498;1264;22501;-59
2023/07/06 04:29:29;;;;;;;3.00;2.80;;;24.50;55.20;;;;;;222628;1267;22517;-55
2023/07/06 04:34:33;;;;;;;4.00;3.20;;;24.60;55.40;;;;;;222598;1263;24533;-57
2023/07/06 04:39:39;;;;;;;4.80;3.20;;;24.50;55.70;;;;;;222423;1254;24220;-56
2023/07/06 04:44:44;;;;;;;4.20;2.80;;;24.50;55.50;;;;;;222330;1264;22582;-55
2023/07/06 04:49:50;;;;;;;5.00;2.60;;;24.50;55.60;;;;;;222292;1250;24179;-55
2023/07/06 04:54:54;;;;;;;4.40;3.50;;;24.50;56.00;;;;;;222971;1247;25366;-57
2023/07/06 05:00:00;;;;;;;3.60;3.30;;;24.50;55.80;;;;;;222288;1267;22602;-55
2023/07/06 05:05:05;;;;;;;5.40;2.70;;;24.50;56.00;;;;;;222822;1254;24330;-58
2023/07/06 05:10:09;;;;;;;3.80;2.40;;;24.50;55.90;;;;;;222483;1260;24842;-55
2023/07/06 05:15:17;;;;;;;3.20;2.90;;;24.50;56.20;;;;;;222380;1250;24247;-52
2023/07/06 05:20:22;;;;;;;3.40;2.80;;;24.50;56.70;;;;;;222247;1253;22808;-56
2023/07/06 05:25:26;;;;;;;4.00;2.90;;;24.50;56.30;;;;;;222457;1257;22553;-58
2023/07/06 05:30:30;;;;;;;3.30;2.70;;;24.50;56.30;;;;;;222462;1260;23703;-54
2023/07/06 05:35:35;;;;;;;3.20;3.00;;;24.50;56.30;;;;;;222271;1253;22969;-55
2023/07/06 05:40:41;;;;;;;3.70;3.20;;;24.50;56.50;;;;;;222323;1263;25265;-58
2023/07/06 05:45:47;;;;;;;3.60;3.20;;;24.50;56.80;;;;;;222401;1260;22751;-59
2023/07/06 05:50:51;;;;;;;6.20;3.00;;;24.50;56.90;;;;;;222835;1263;23766;-55
2023/07/06 05:55:55;;;;;;;3.50;3.10;;;24.50;57.10;;;;;;222566;1260;22693;-53
2023/07/06 06:01:02;;;;;;;4.10;2.80;;;24.50;57.00;;;;;;222404;1257;22516;-57
2023/07/06 06:06:07;;;;;;;6.90;3.30;;;24.50;57.50;;;;;;222991;1268;23001;-49
2023/07/06 06:11:11;;;;;;;5.90;3.80;;;24.40;57.30;;;;;;223318;1247;22521;-48
2023/07/06 06:16:16;;;;;;;10.90;3.90;;;24.40;57.00;;;;;;222687;1247;22833;-57
2023/07/06 06:21:20;;;;;;;7.10;4.10;;;24.20;57.50;;;;;;223705;1263;25316;-57
2023/07/06 06:26:25;;;;;;;8.40;4.10;;;24.10;56.50;;;;;;223217;1268;24362;-56
2023/07/06 06:31:32;;;;;;;5.90;4.20;;;24.10;56.00;;;;;;224210;1253;22850;-57
2023/07/06 06:36:36;;;;;;;5.10;3.50;;;24.10;55.40;;;;;;222143;1247;22533;-59
2023/07/06 06:41:41;;;;;;;6.90;3.60;;;24.00;55.40;;;;;;222242;1266;22594;-56
2023/07/06 06:46:45;;;;;;;4.50;3.80;;;24.10;55.60;;;;;;222410;1264;22515;-60
2023/07/06 06:51:49;;;;;;;6.50;4.00;;;24.10;55.70;;;;;;222433;1260;24232;-58
2023/07/06 06:56:53;;;;;;;7.60;4.00;;;24.10;55.00;;;;;;222522;1263;26490;-57
2023/07/06 07:02:02;;;;;;;4.80;3.80;;;24.10;55.00;;;;;;222558;1268;22504;-57
2023/07/06 07:07:07;;;;;;;5.90;4.50;;;24.10;55.00;;;;;;222780;1260;22518;-57
2023/07/06 07:12:12;;;;;;;7.70;3.90;;;24.20;55.40;;;;;;222474;1263;22502;-56
2023/07/06 07:17:16;;;;;;;12.60;4.10;;;24.30;55.00;;;;;;222947;1253;24202;-56
2023/07/06 07:22:21;;;;;;;5.30;3.70;;;24.30;54.50;;;;;;222790;1263;25181;-55
2023/07/06 07:27:28;;;;;;;5.40;3.60;;;24.20;53.80;;;;;;222948;1266;24298;-53
2023/07/06 07:32:33;;;;;;;6.90;3.60;;;24.20;53.30;;;;;;222522;1260;23650;-53
2023/07/06 07:37:37;;;;;;;6.90;3.80;;;24.20;52.80;;;;;;222406;1260;22503;-51
2023/07/06 07:42:46;;;;;;;4.40;3.40;;;24.20;53.10;;;;;;222453;1263;25383;-51
2023/07/06 07:47:50;;;;;;;4.30;3.30;;;24.20;52.20;;;;;;222401;1263;25967;-53
2023/07/06 07:52:55;;;;;;;4.40;3.20;;;24.10;51.00;;;;;;222666;1256;23882;-55
2023/07/06 07:57:58;;;;;;;4.70;3.50;;;24.10;50.50;;;;;;222428;1264;24263;-50
2023/07/06 08:03:03;;;;;;;4.00;3.20;;;24.10;49.40;;;;;;222509;1261;24339;-50
2023/07/06 08:08:07;;;;;;;4.50;3.50;;;24.20;49.90;;;;;;222375;1264;24252;-52
2023/07/06 08:13:17;;;;;;;5.70;3.40;;;24.20;49.80;;;;;;222512;1267;22531;-53
2023/07/06 08:18:24;;;;;;;5.10;3.80;;;24.20;49.20;;;;;;222463;1260;22759;-51
2023/07/06 08:23:29;;;;;;;2.70;2.30;;;24.30;49.50;;;;;;222392;1260;22519;-51
2023/07/06 08:28:33;;;;;;;5.00;2.70;;;24.30;49.50;;;;;;222550;1266;22596;-49
2023/07/06 08:33:37;;;;;;;4.60;2.90;;;24.30;50.00;;;;;;220920;1265;22870;-52
2023/07/06 08:38:43;;;;;;;4.20;2.80;;;24.30;48.80;;;;;;221362;1259;25361;-52
2023/07/06 08:43:53;;;;;;;6.10;3.20;;;24.30;48.80;;;;;;221340;1267;22518;-52
2023/07/06 08:49:00;;;;;;;5.80;2.70;;;24.30;47.80;;;;;;221402;1263;22623;-51
2023/07/06 08:54:19;;;;;;;5.70;2.60;;;24.40;48.60;;;;;;222497;1243;24222;-50
2023/07/06 08:59:37;;;;;;;3.90;3.30;;;24.60;47.60;;;;;;222441;1260;25383;-52
2023/07/06 09:04:41;;;;;;;4.00;2.80;;;24.70;48.50;;;;;;222432;1256;24225;-53
2023/07/06 09:09:47;;;;;;;5.10;2.80;;;24.90;49.10;;;;;;222960;1263;22634;-51
2023/07/06 09:14:57;;;;;;;7.90;2.50;;;24.90;49.40;;;;;;222493;1263;23076;-53
2023/07/06 09:20:06;;;;;;;6.50;2.70;;;24.90;50.30;;;;;;222615;1264;24210;-51
2023/07/06 09:25:17;;;;;;;9.50;2.80;;;25.00;50.30;;;;;;222866;1263;27607;-51
2023/07/06 09:30:36;;;;;;;9.60;2.80;;;25.10;50.90;;;;;;222598;1260;22711;-51
2023/07/06 09:35:41;;;;;;;12.00;3.10;;;25.30;51.00;;;;;;222512;1260;22518;-53
2023/07/06 09:40:47;;;;;;;6.80;2.70;;;25.30;49.70;;;;;;222781;1266;22620;-50
2023/07/06 09:46:09;;;;;;;6.80;3.80;;;25.10;50.10;;;;;;222545;1257;22519;-50
2023/07/06 09:51:25;;;;;;;10.60;2.30;;;25.10;50.10;;;;;;222631;1266;24059;-51
2023/07/06 09:56:29;;;;;;;11.10;3.10;;;25.10;50.90;;;;;;222602;1260;22585;-51
2023/07/06 10:01:59;;;;;;;9.10;2.50;;;25.30;51.80;;;;;;222852;1260;23902;-50
2023/07/06 10:07:27;;;;;;;19.00;3.20;;;25.40;51.60;;;;;;222804;1263;27437;-50
2023/07/06 10:12:54;;;;;;;6.70;3.40;;;25.40;52.30;;;;;;222660;1268;22514;-49
2023/07/06 10:18:14;;;;;;;12.00;3.20;;;25.40;52.30;;;;;;222546;1251;24330;-56
2023/07/06 10:23:39;;;;;;;11.30;2.80;;;25.40;52.90;;;;;;222511;1266;23008;-54
2023/07/06 10:29:16;;;;;;;19.20;3.40;;;25.50;53.10;;;;;;222651;1263;24215;-54
2023/07/06 10:34:44;;;;;;;10.70;2.70;;;25.60;53.10;;;;;;223517;1266;24250;-56
2023/07/06 10:39:53;;;;;;;9.00;2.60;;;25.60;53.20;;;;;;222791;1266;24356;-56
2023/07/06 10:45:02;;;;;;;12.40;3.40;;;25.60;53.40;;;;;;222549;1263;22513;-58
2023/07/06 10:50:25;;;;;;;6.20;2.50;;;25.60;54.90;;;;;;222483;1260;24276;-58
2023/07/06 10:55:36;;;;;;;6.90;2.80;;;25.70;54.00;;;;;;222736;1260;22507;-54
2023/07/06 11:00:44;;;;;;;4.00;2.40;;;25.70;54.20;;;;;;222407;1260;22521;-55
2023/07/06 11:05:54;;;;;;;7.30;2.90;;;25.80;53.50;;;;;;222470;1250;24212;-57
2023/07/06 11:11:02;;;;;;;5.40;2.60;;;25.80;53.90;;;;;;225616;1260;25374;-57
2023/07/06 11:16:22;;;;;;;7.40;2.80;;;25.90;54.50;;;;;;223202;1260;22514;-55
2023/07/06 11:21:47;;;;;;;6.80;2.60;;;26.00;53.80;;;;;;222639;1260;25188;-57
2023/07/06 11:26:55;;;;;;;5.00;2.30;;;26.00;54.10;;;;;;223052;1254;24361;-58
2023/07/06 11:32:25;;;;;;;3.20;2.10;;;26.00;54.30;;;;;;222511;1257;22504;-54
2023/07/06 11:37:44;;;;;;;4.50;2.40;;;26.00;54.40;;;;;;222391;1260;22511;-59
2023/07/06 11:43:26;;;;;;;3.10;2.10;;;26.00;54.40;;;;;;222700;1253;24169;-57
2023/07/06 11:48:37;;;;;;;3.70;2.10;;;26.00;54.70;;;;;;222409;1260;23580;-58
2023/07/06 11:53:54;;;;;;;;;;;26.10;53.90;;;;;;222375;1254;25349;-57
2023/07/06 11:59:04;;;;;;;3.30;2.00;;;26.10;53.90;;;;;;222576;1260;24858;-56
2023/07/06 12:04:22;;;;;;;5.00;2.30;;;26.30;53.70;;;;;;222458;1263;24180;-58
2023/07/06 12:09:26;;;;;;;4.40;2.30;;;26.30;53.60;;;;;;222547;1260;22540;-57
2023/07/06 12:14:34;;;;;;;8.60;3.30;;;26.40;53.70;;;;;;222678;1246;24161;-55
2023/07/06 12:19:41;;;;;;;3.20;1.80;;;26.40;53.90;;;;;;222382;1253;24199;-58
2023/07/06 12:24:45;;;;;;;3.40;2.00;;;26.40;53.60;;;;;;222473;1260;25378;-54
2023/07/06 12:30:03;;;;;;;2.50;2.10;;;26.50;54.40;;;;;;222383;1250;23635;-55
2023/07/06 12:35:11;;;;;;;4.70;2.10;;;26.50;54.00;;;;;;222588;1259;22659;-53
2023/07/06 12:40:21;;;;;;;5.20;2.10;;;26.50;53.70;;;;;;222510;1260;23959;-52
2023/07/06 12:45:29;;;;;;;4.50;2.50;;;26.50;54.00;;;;;;222566;1258;22525;-51
2023/07/06 12:50:40;;;;;;;2.10;1.90;;;26.50;53.20;;;;;;222750;1260;24855;-58
2023/07/06 12:55:45;;;;;;;6.10;2.40;;;26.60;53.70;;;;;;222692;1264;22795;-54
2023/07/06 13:00:50;;;;;;;2.30;2.00;;;26.60;53.10;;;;;;222706;1251;22690;-54
2023/07/06 13:05:55;;;;;;;3.40;3.00;;;26.70;53.30;;;;;;222808;1260;24060;-47
2023/07/06 13:11:07;;;;;;;3.70;2.10;;;26.70;53.50;;;;;;222677;1261;22716;-47
2023/07/06 13:16:17;;;;;;;4.40;2.30;;;26.70;53.50;;;;;;222855;1260;25303;-44
2023/07/06 13:21:25;;;;;;;4.60;1.90;;;26.80;51.50;;;;;;222813;1260;23116;-56
2023/07/06 13:26:30;;;;;;;6.60;2.10;;;26.70;51.20;;;;;;222555;1260;22763;-52
2023/07/06 13:31:34;;;;;;;6.20;2.10;;;26.80;52.50;;;;;;222686;1260;25600;-50
2023/07/06 13:36:58;;;;;;;2.90;1.90;;;26.80;52.80;;;;;;222794;1266;22963;-54
2023/07/06 13:42:04;;;;;;;3.10;1.90;;;26.90;52.70;;;;;;222496;1259;22573;-53
2023/07/06 13:47:12;;;;;;;4.60;1.70;;;27.00;53.40;;;;;;222885;1260;24193;-52
2023/07/06 13:52:17;;;;;;;7.80;2.30;;;26.90;53.30;;;;;;222515;1261;22631;-51
2023/07/06 13:57:21;;;;;;;12.70;2.10;;;27.00;53.00;;;;;;222839;1266;24046;-53
2023/07/06 14:02:25;;;;;;;6.30;2.00;;;27.00;53.10;;;;;;222385;1256;22508;-52
2023/07/06 14:07:31;;;;;;;4.10;1.70;;;27.00;53.70;;;;;;222534;1260;22524;-49
2023/07/06 14:12:35;;;;;;;3.80;1.50;;;26.80;56.30;;;;;;222511;1260;22977;-54
2023/07/06 14:17:40;;;;;;;1.90;1.70;;;26.90;54.20;;;;;;222202;1260;204003;-53
2023/07/06 14:22:44;;;;;;;7.80;2.10;;;27.00;54.30;;;;;;222661;1263;23914;-53
2023/07/06 14:27:48;;;;;;;3.50;2.10;;;26.90;54.10;;;;;;222547;1256;22525;-55
2023/07/06 14:32:53;;;;;;;4.10;2.10;;;26.90;55.00;;;;;;222568;1260;23921;-51
2023/07/06 14:37:58;;;;;;;6.30;2.60;;;26.90;54.80;;;;;;222583;1266;22626;-54
2023/07/06 14:43:04;;;;;;;8.70;1.90;;;26.90;55.20;;;;;;222352;1256;22637;-51
2023/07/06 14:48:08;;;;;;;5.80;1.80;;;26.90;54.60;;;;;;222674;1266;24206;-53
2023/07/06 14:53:12;;;;;;;3.80;1.90;;;26.90;54.70;;;;;;222516;1260;23124;-52
2023/07/06 14:58:16;;;;;;;2.20;1.90;;;27.00;54.40;;;;;;222472;1265;22522;-48
2023/07/06 15:03:21;;;;;;;2.80;1.90;;;27.00;53.90;;;;;;222712;1261;22718;-50
2023/07/06 15:08:25;;;;;;;2.90;1.90;;;27.00;53.90;;;;;;222516;1259;25615;-55
2023/07/06 15:13:29;;;;;;;6.40;2.00;;;27.10;53.80;;;;;;222518;1265;22509;-52
2023/07/06 15:18:34;;;;;;;6.30;2.00;;;27.10;54.20;;;;;;222743;1263;22508;-52
2023/07/06 15:23:40;;;;;;;26.40;2.90;;;27.00;54.60;;;;;;222462;1263;22624;-54
2023/07/06 15:28:44;;;;;;;17.40;3.80;;;27.10;55.20;;;;;;222546;1263;25201;-50
2023/07/06 15:33:53;;;;;;;14.00;2.60;;;27.00;55.60;;;;;;222593;1260;24184;-54
2023/07/06 15:38:57;;;;;;;10.90;2.20;;;27.10;55.70;;;;;;222340;1268;22627;-54
2023/07/06 15:44:03;;;;;;;13.40;2.70;;;27.10;56.60;;;;;;222297;1260;22510;-54
2023/07/06 15:49:08;;;;;;;15.80;3.90;;;27.10;56.00;;;;;;222689;1260;22515;-53
2023/07/06 15:54:13;;;;;;;17.30;2.90;;;27.10;56.30;;;;;;222420;1260;22513;-53
2023/07/06 15:59:17;;;;;;;9.00;2.40;;;27.10;56.70;;;;;;222715;1263;22629;-53
2023/07/06 16:04:22;;;;;;;16.20;3.10;;;27.10;56.80;;;;;;222613;1266;23245;-46
2023/07/06 16:09:26;;;;;;;9.70;2.70;;;27.00;57.40;;;;;;222585;1254;24190;-46
2023/07/06 16:14:31;;;;;;;9.80;3.20;;;27.10;57.70;;;;;;222614;1261;22519;-52
2023/07/06 16:19:35;;;;;;;14.00;3.20;;;27.00;57.30;;;;;;222796;1266;22513;-53
2023/07/06 16:24:40;;;;;;;5.40;2.50;;;27.10;57.00;;;;;;223301;1264;22511;-51
2023/07/06 16:29:44;;;;;;;5.60;2.50;;;27.00;57.20;;;;;;222407;1265;24180;-53
2023/07/06 16:34:48;;;;;;;7.50;2.50;;;27.10;57.00;;;;;;222898;1263;25439;-52
2023/07/06 16:39:53;;;;;;;4.50;2.60;;;27.00;57.20;;;;;;222666;1254;24180;-53
2023/07/06 16:44:57;;;;;;;7.20;3.00;;;26.90;56.60;;;;;;222391;1260;22495;-49
2023/07/06 16:50:03;;;;;;;8.30;2.80;;;27.00;54.70;;;;;;222501;1254;22508;-52
2023/07/06 16:55:07;;;;;;;8.60;3.10;;;27.00;51.30;;;;;;222849;1260;25227;-51
2023/07/06 17:00:12;;;;;;;4.20;2.40;;;27.00;50.50;;;;;;222542;1260;22504;-50
2023/07/06 17:05:16;;;;;;;3.20;2.30;;;27.00;48.60;;;;;;222421;1254;22630;-52
2023/07/06 17:10:23;;;;;;;7.80;2.60;;;26.90;49.30;;;;;;222640;1260;24190;-54
2023/07/06 17:15:27;;;;;;;7.60;2.30;;;26.70;51.10;;;;;;222405;1266;24319;-52
2023/07/06 17:20:31;;;;;;;4.90;2.10;;;26.80;50.80;;;;;;222433;1263;24183;-52
2023/07/06 17:25:36;;;;;;;7.80;2.20;;;26.70;51.20;;;;;;222715;1263;25367;-55
2023/07/06 17:30:42;;;;;;;8.30;1.70;;;26.70;48.50;;;;;;222377;1254;24192;-53
2023/07/06 17:35:47;;;;;;;6.60;2.30;;;26.80;48.20;;;;;;222606;1261;24407;-54
2023/07/06 17:40:59;;;;;;;6.30;2.30;;;26.80;48.10;;;;;;222450;1261;24301;-52
2023/07/06 17:46:05;;;;;;;5.50;2.40;;;26.60;48.60;;;;;;222439;1261;22508;-53
2023/07/06 17:51:10;;;;;;;7.50;4.10;;;26.50;47.00;;;;;;223404;1265;22627;-50
2023/07/06 17:56:17;;;;;;;5.80;2.90;;;26.60;46.30;;;;;;224539;1266;25219;-49
2023/07/06 18:01:21;;;;;;;4.60;2.40;;;26.70;46.70;;;;;;222630;1266;22512;-50
2023/07/06 18:06:27;;;;;;;6.60;2.30;;;26.80;46.40;;;;;;222624;1260;24192;-52
2023/07/06 18:11:32;;;;;;;2.80;2.30;;;26.70;46.00;;;;;;222631;1260;24321;-53
2023/07/06 18:16:38;;;;;;;6.00;2.50;;;26.70;46.60;;;;;;222683;1260;25214;-48
2023/07/06 18:21:45;;;;;;;3.80;2.70;;;26.60;47.10;;;;;;222518;1261;22531;-49
2023/07/06 18:26:49;;;;;;;3.70;2.80;;;26.50;47.20;;;;;;222546;1266;22556;-52
2023/07/06 18:31:55;;;;;;;2.60;2.30;;;26.60;48.00;;;;;;222645;1260;25252;-55
2023/07/06 18:37:01;;;;;;;3.80;2.30;;;26.50;48.40;;;;;;222626;1263;22520;-49
2023/07/06 18:42:08;;;;;;;4.20;2.20;;;26.40;48.20;;;;;;222429;1266;22524;-52
2023/07/06 18:47:14;;;;;;;5.00;2.30;;;26.40;48.70;;;;;;222670;1266;25383;-56
2023/07/06 18:52:20;;;;;;;9.70;2.70;;;26.40;49.60;;;;;;222586;1260;22619;-51
2023/07/06 18:57:26;;;;;;;10.20;3.00;;;26.50;52.10;;;;;;221124;1272;25444;-54
2023/07/06 19:02:31;;;;;;;10.00;2.70;;;26.50;51.90;;;;;;221007;1271;25458;-48
2023/07/06 19:07:37;;;;;;;9.90;2.30;;;26.50;52.00;;;;;;221992;1272;22525;-49
2023/07/06 19:12:59;;;;;;;10.50;2.40;;;26.60;51.80;;;;;;221367;1254;24368;-46
2023/07/06 19:18:08;;;;;;;7.20;4.80;;;26.70;52.30;;;;;;222571;1260;22522;-50
2023/07/06 19:23:12;;;;;;;6.20;4.10;;;26.90;53.90;;;;;;222303;1266;25594;-49
2023/07/06 19:28:18;;;;;;;8.40;3.50;;;26.80;53.10;;;;;;222371;1263;25191;-50
2023/07/06 19:33:22;;;;;;;6.00;2.90;;;26.80;53.30;;;;;;222378;1263;22521;-50
2023/07/06 19:38:27;;;;;;;6.60;2.80;;;26.50;52.80;;;;;;222720;1263;24362;-48
2023/07/06 19:43:31;;;;;;;10.50;2.90;;;26.20;52.50;;;;;;222427;1262;24190;-48
2023/07/06 19:48:37;;;;;;;5.50;2.50;;;26.10;52.50;;;;;;222483;1255;25369;-50
2023/07/06 19:53:42;;;;;;;13.50;4.00;;;26.00;52.40;;;;;;221460;1269;22852;-48
2023/07/06 19:58:46;;;;;;;5.60;2.70;;;26.00;52.80;;;;;;221361;1267;22537;-48
2023/07/06 20:03:51;;;;;;;6.20;2.80;;;25.90;52.80;;;;;;221105;1259;22574;-54
2023/07/06 20:08:56;;;;;;;10.60;6.50;;;25.90;52.60;;;;;;221611;1267;23360;-51
2023/07/06 20:14:02;;;;;;;6.90;4.80;;;25.60;52.50;;;;;;222678;1264;22520;-52
2023/07/06 20:19:08;;;;;;;21.60;4.30;;;25.60;53.20;;;;;;222123;1264;22521;-52
2023/07/06 20:24:13;;;;;;;6.20;3.60;;;25.80;54.10;;;;;;222477;1263;24183;-52
2023/07/06 20:29:18;;;;;;;10.10;3.80;;;25.70;53.30;;;;;;222609;1263;25443;-51
2023/07/06 20:34:22;;;;;;;5.90;3.80;;;25.60;54.00;;;;;;222478;1266;22520;-51
2023/07/06 20:39:27;;;;;;;5.70;3.90;;;25.50;53.20;;;;;;222518;1256;22608;-42
2023/07/06 20:44:32;;;;;;;4.60;3.90;;;25.50;53.70;;;;;;222234;1266;22508;-48
2023/07/06 20:49:38;;;;;;;6.40;3.40;;;25.50;53.20;;;;;;223348;1263;22562;-53
2023/07/06 20:54:43;;;;;;;6.80;3.30;;;25.30;53.50;;;;;;222337;1269;22519;-52
2023/07/06 20:59:48;;;;;;;8.40;5.40;;;25.10;53.30;;;;;;222463;1269;26631;-54
2023/07/06 21:04:52;;;;;;;5.80;4.30;;;25.00;53.50;;;;;;222535;1266;24736;-53
2023/07/06 21:09:56;;;;;;;9.20;4.10;;;24.90;53.30;;;;;;222404;1268;22528;-52
2023/07/06 21:15:01;;;;;;;8.90;3.80;;;24.80;53.50;;;;;;225489;1256;24195;-49
2023/07/06 21:20:06;;;;;;;5.20;3.60;;;24.70;53.50;;;;;;223235;1264;23603;-54
2023/07/06 21:25:11;;;;;;;4.60;4.20;;;24.70;53.60;;;;;;222727;1260;22510;-53
2023/07/06 21:30:15;;;;;;;5.40;4.70;;;24.50;54.30;;;;;;222298;1268;24250;-56
2023/07/06 21:35:21;;;;;;;4.40;4.00;;;24.40;55.00;;;;;;222210;1260;24178;-54
2023/07/06 21:40:28;;;;;;;4.40;4.00;;;24.50;54.70;;;;;;222733;1255;25332;-57
2023/07/06 21:45:32;;;;;;;4.40;3.70;;;24.60;54.70;;;;;;222377;1260;22512;-54
2023/07/06 21:50:38;;;;;;;7.00;4.00;;;24.50;54.90;;;;;;222643;1261;22685;-55
2023/07/06 21:55:42;;;;;;;8.10;4.00;;;24.50;55.30;;;;;;222465;1264;24040;-55
2023/07/06 22:00:48;;;;;;;5.30;3.60;;;24.50;54.90;;;;;;222851;1260;22586;-53
2023/07/06 22:06:01;;;;;;;6.10;3.90;;;24.50;55.30;;;;;;223127;1261;22517;-52
2023/07/06 22:11:07;;;;;;;7.20;3.60;;;24.50;55.60;;;;;;222895;1259;25278;-53
2023/07/06 22:16:21;;;;;;;5.00;3.60;;;24.40;55.20;;;;;;223031;1264;25460;-56
2023/07/06 22:21:25;;;;;;;4.10;3.70;;;24.50;55.20;;;;;;222962;1267;26654;-56
2023/07/06 22:26:30;;;;;;;6.70;3.50;;;24.40;55.20;;;;;;222578;1260;25243;-54
2023/07/06 22:31:35;;;;;;;5.00;3.50;;;24.40;55.30;;;;;;222372;1255;24187;-53
2023/07/06 22:36:39;;;;;;;4.30;3.00;;;24.30;55.20;;;;;;222494;1268;24868;-50
2023/07/06 22:41:43;;;;;;;3.60;3.20;;;24.20;55.00;;;;;;222511;1264;22800;-54
2023/07/06 22:46:51;;;;;;;4.20;3.40;;;24.20;54.80;;;;;;222335;1261;22515;-54
2023/07/06 22:51:59;;;;;;;4.10;3.00;;;24.10;54.70;;;;;;222438;1260;24321;-55
2023/07/06 22:57:04;;;;;;;6.00;3.40;;;24.10;54.70;;;;;;222584;1260;22847;-55
2023/07/06 23:02:09;;;;;;;6.20;4.00;;;24.10;54.30;;;;;;222573;1254;22722;-53
2023/07/06 23:07:13;;;;;;;3.70;3.40;;;24.00;54.10;;;;;;222815;1266;22512;-49
2023/07/06 23:12:17;;;;;;;5.80;3.90;;;24.00;54.10;;;;;;222506;1261;24216;-55
2023/07/06 23:17:22;;;;;;;3.80;3.40;;;23.90;53.90;;;;;;222569;1263;25459;-52
2023/07/06 23:22:32;;;;;;;4.50;3.50;;;23.90;53.90;;;;;;222526;1254;25446;-54
2023/07/06 23:27:37;;;;;;;5.60;3.70;;;23.90;53.80;;;;;;222348;1257;24374;-54
2023/07/06 23:32:48;;;;;;;5.40;3.40;;;23.90;53.60;;;;;;227751;1254;22518;-55
2023/07/06 23:37:56;;;;;;;8.70;3.40;;;24.30;53.50;;;;;;230364;1255;22409;-52
2023/07/06 23:43:00;;;;;;;3.90;3.50;;;24.60;53.00;;;;;;222567;1260;24344;-52
2023/07/06 23:48:07;;;;;;;4.80;3.10;;;24.70;53.40;;;;;;222475;1257;22505;-55
2023/07/06 23:53:11;;;;;;;4.20;3.00;;;24.70;54.60;;;;;;222552;1257;23958;-54
2023/07/06 23:58:16;;;;;;;3.50;3.20;;;24.60;54.70;;;;;;222176;1254;24228;-53
